sensor_id;sensor_type;location;lat;lon;timestamp;P1;durP1;ratioP1;P2;durP2;ratioP2
72891;SDS011;61032;50.782;6.818;2023-05-10T00:00:59;2.58;;;1.50;;
72891;SDS011;61032;50.782;6.818;2023-05-10T00:01:59;1.70;;;1.20;;
72891;SDS011;61032;50.782;6.818;2023-05-10T00:03:00;2.45;;;1.60;;
72891;SDS011;61032;50.782;6.818;2023-05-10T00:04:00;2.45;;;1.10;;
72891;SDS011;61032;50.782;6.818;2023-05-10T00:05:01;3.13;;;1.48;;
72891;SDS011;61032;50.782;6.818;2023-05-10T00:06:02;1.58;;;1.30;;
72891;SDS011;61032;50.782;6.818;2023-05-10T00:07:02;3.22;;;2.13;;
72891;SDS011;61032;50.782;6.818;2023-05-10T00:08:03;2.22;;;1.55;;
72891;SDS011;61032;50.782;6.818;2023-05-10T00:09:03;2.88;;;1.42;;
72891;SDS011;61032;50.782;6.818;2023-05-10T00:10:04;2.70;;;1.45;;
72891;SDS011;61032;50.782;6.818;2023-05-10T00:11:04;2.35;;;1.52;;
72891;SDS011;61032;50.782;6.818;2023-05-10T00:12:05;2.22;;;1.48;;
72891;SDS011;61032;50.782;6.818;2023-05-10T00:13:06;2.45;;;1.67;;
72891;SDS011;61032;50.782;6.818;2023-05-10T00:14:06;2.75;;;1.73;;
72891;SDS011;61032;50.782;6.818;2023-05-10T00:15:07;2.97;;;1.73;;
72891;SDS011;61032;50.782;6.818;2023-05-10T00:16:08;2.70;;;1.65;;
72891;SDS011;61032;50.782;6.818;2023-05-10T00:17:08;2.63;;;1.80;;
72891;SDS011;61032;50.782;6.818;2023-05-10T00:18:09;2.95;;;1.77;;
72891;SDS011;61032;50.782;6.818;2023-05-10T00:19:09;2.67;;;1.50;;
72891;SDS011;61032;50.782;6.818;2023-05-10T00:20:10;3.47;;;1.90;;
72891;SDS011;61032;50.782;6.818;2023-05-10T00:21:11;2.40;;;1.73;;
72891;SDS011;61032;50.782;6.818;2023-05-10T00:22:11;2.95;;;1.67;;
72891;SDS011;61032;50.782;6.818;2023-05-10T00:23:12;2.55;;;1.67;;
72891;SDS011;61032;50.782;6.818;2023-05-10T00:24:12;3.78;;;1.98;;
72891;SDS011;61032;50.782;6.818;2023-05-10T00:25:12;2.80;;;1.70;;
72891;SDS011;61032;50.782;6.818;2023-05-10T00:26:13;3.10;;;1.88;;
72891;SDS011;61032;50.782;6.818;2023-05-10T00:27:14;3.00;;;1.80;;
72891;SDS011;61032;50.782;6.818;2023-05-10T00:28:14;3.55;;;2.05;;
72891;SDS011;61032;50.782;6.818;2023-05-10T00:29:14;5.05;;;2.25;;
72891;SDS011;61032;50.782;6.818;2023-05-10T00:30:15;2.63;;;1.70;;
72891;SDS011;61032;50.782;6.818;2023-05-10T00:31:15;2.97;;;2.08;;
72891;SDS011;61032;50.782;6.818;2023-05-10T00:32:16;4.50;;;2.00;;
72891;SDS011;61032;50.782;6.818;2023-05-10T00:33:16;3.28;;;1.73;;
72891;SDS011;61032;50.782;6.818;2023-05-10T00:34:17;3.92;;;2.17;;
72891;SDS011;61032;50.782;6.818;2023-05-10T00:35:17;3.38;;;2.08;;
72891;SDS011;61032;50.782;6.818;2023-05-10T00:36:17;3.20;;;2.25;;
72891;SDS011;61032;50.782;6.818;2023-05-10T00:37:18;3.13;;;1.80;;
72891;SDS011;61032;50.782;6.818;2023-05-10T00:38:18;3.78;;;2.20;;
72891;SDS011;61032;50.782;6.818;2023-05-10T00:39:19;3.50;;;2.00;;
72891;SDS011;61032;50.782;6.818;2023-05-10T00:40:19;3.28;;;2.00;;
72891;SDS011;61032;50.782;6.818;2023-05-10T00:41:20;3.70;;;2.10;;
72891;SDS011;61032;50.782;6.818;2023-05-10T00:42:21;3.42;;;2.08;;
72891;SDS011;61032;50.782;6.818;2023-05-10T00:43:22;3.05;;;1.83;;
72891;SDS011;61032;50.782;6.818;2023-05-10T00:44:22;3.92;;;2.30;;
72891;SDS011;61032;50.782;6.818;2023-05-10T00:45:23;3.13;;;2.00;;
72891;SDS011;61032;50.782;6.818;2023-05-10T00:46:24;3.63;;;1.83;;
72891;SDS011;61032;50.782;6.818;2023-05-10T00:47:25;2.33;;;1.90;;
72891;SDS011;61032;50.782;6.818;2023-05-10T00:48:26;3.17;;;1.98;;
72891;SDS011;61032;50.782;6.818;2023-05-10T00:49:26;4.00;;;2.10;;
72891;SDS011;61032;50.782;6.818;2023-05-10T00:50:28;2.60;;;1.73;;
72891;SDS011;61032;50.782;6.818;2023-05-10T00:51:28;2.85;;;2.05;;
72891;SDS011;61032;50.782;6.818;2023-05-10T00:52:29;2.75;;;1.67;;
72891;SDS011;61032;50.782;6.818;2023-05-10T00:53:30;2.55;;;1.75;;
72891;SDS011;61032;50.782;6.818;2023-05-10T00:54:32;3.40;;;2.03;;
72891;SDS011;61032;50.782;6.818;2023-05-10T00:55:33;2.47;;;1.63;;
72891;SDS011;61032;50.782;6.818;2023-05-10T00:56:34;3.10;;;1.73;;
72891;SDS011;61032;50.782;6.818;2023-05-10T00:57:34;3.95;;;1.83;;
72891;SDS011;61032;50.782;6.818;2023-05-10T00:58:35;2.72;;;1.23;;
72891;SDS011;61032;50.782;6.818;2023-05-10T00:59:36;2.70;;;1.50;;
72891;SDS011;61032;50.782;6.818;2023-05-10T01:00:36;2.10;;;1.20;;
72891;SDS011;61032;50.782;6.818;2023-05-10T01:01:38;3.35;;;1.70;;
72891;SDS011;61032;50.782;6.818;2023-05-10T01:02:39;1.88;;;1.20;;
72891;SDS011;61032;50.782;6.818;2023-05-10T01:03:40;1.65;;;1.00;;
72891;SDS011;61032;50.782;6.818;2023-05-10T01:04:41;1.85;;;1.17;;
72891;SDS011;61032;50.782;6.818;2023-05-10T01:05:43;2.22;;;1.00;;
72891;SDS011;61032;50.782;6.818;2023-05-10T01:06:43;1.65;;;1.13;;
72891;SDS011;61032;50.782;6.818;2023-05-10T01:07:44;1.92;;;1.10;;
72891;SDS011;61032;50.782;6.818;2023-05-10T01:08:44;2.13;;;1.10;;
72891;SDS011;61032;50.782;6.818;2023-05-10T01:09:45;2.75;;;0.90;;
72891;SDS011;61032;50.782;6.818;2023-05-10T01:10:45;2.03;;;0.90;;
72891;SDS011;61032;50.782;6.818;2023-05-10T01:11:49;1.60;;;0.80;;
72891;SDS011;61032;50.782;6.818;2023-05-10T01:12:50;1.63;;;0.93;;
72891;SDS011;61032;50.782;6.818;2023-05-10T01:13:52;1.52;;;1.00;;
72891;SDS011;61032;50.782;6.818;2023-05-10T01:14:57;1.05;;;0.63;;
72891;SDS011;61032;50.782;6.818;2023-05-10T01:15:58;1.95;;;0.90;;
72891;SDS011;61032;50.782;6.818;2023-05-10T01:17:01;1.90;;;1.33;;
72891;SDS011;61032;50.782;6.818;2023-05-10T01:18:03;2.78;;;0.82;;
72891;SDS011;61032;50.782;6.818;2023-05-10T01:19:05;1.40;;;0.70;;
72891;SDS011;61032;50.782;6.818;2023-05-10T01:20:12;1.17;;;0.80;;
72891;SDS011;61032;50.782;6.818;2023-05-10T01:21:17;1.38;;;0.55;;
72891;SDS011;61032;50.782;6.818;2023-05-10T01:29:41;1.52;;;0.52;;
72891;SDS011;61032;50.782;6.818;2023-05-10T01:33:35;1.75;;;0.60;;
72891;SDS011;61032;50.782;6.818;2023-05-10T01:35:55;1.10;;;0.57;;
72891;SDS011;61032;50.782;6.818;2023-05-10T01:37:04;0.98;;;0.43;;
72891;SDS011;61032;50.782;6.818;2023-05-10T01:38:17;1.25;;;0.65;;
72891;SDS011;61032;50.782;6.818;2023-05-10T01:39:49;1.67;;;0.40;;
72891;SDS011;61032;50.782;6.818;2023-05-10T01:42:14;1.38;;;0.30;;
72891;SDS011;61032;50.782;6.818;2023-05-10T01:43:22;1.77;;;0.40;;
72891;SDS011;61032;50.782;6.818;2023-05-10T01:45:39;2.70;;;0.73;;
72891;SDS011;61032;50.782;6.818;2023-05-10T01:47:54;1.17;;;0.70;;
72891;SDS011;61032;50.782;6.818;2023-05-10T01:49:20;4.25;;;1.35;;
72891;SDS011;61032;50.782;6.818;2023-05-10T01:51:31;2.15;;;0.80;;
72891;SDS011;61032;50.782;6.818;2023-05-10T01:52:41;2.53;;;1.17;;
72891;SDS011;61032;50.782;6.818;2023-05-10T01:53:44;2.08;;;1.05;;
72891;SDS011;61032;50.782;6.818;2023-05-10T01:54:55;1.67;;;1.02;;
72891;SDS011;61032;50.782;6.818;2023-05-10T01:56:00;1.92;;;1.00;;
72891;SDS011;61032;50.782;6.818;2023-05-10T01:57:03;2.45;;;1.25;;
72891;SDS011;61032;50.782;6.818;2023-05-10T01:58:08;3.22;;;1.85;;
72891;SDS011;61032;50.782;6.818;2023-05-10T01:59:12;2.65;;;1.67;;
72891;SDS011;61032;50.782;6.818;2023-05-10T02:00:15;3.50;;;2.10;;
72891;SDS011;61032;50.782;6.818;2023-05-10T02:01:17;3.40;;;1.65;;
72891;SDS011;61032;50.782;6.818;2023-05-10T02:02:20;3.58;;;1.88;;
72891;SDS011;61032;50.782;6.818;2023-05-10T02:03:23;5.68;;;2.30;;
72891;SDS011;61032;50.782;6.818;2023-05-10T02:04:26;5.78;;;2.70;;
72891;SDS011;61032;50.782;6.818;2023-05-10T02:05:27;4.90;;;2.40;;
72891;SDS011;61032;50.782;6.818;2023-05-10T02:06:31;4.10;;;2.50;;
72891;SDS011;61032;50.782;6.818;2023-05-10T02:07:34;4.70;;;2.75;;
72891;SDS011;61032;50.782;6.818;2023-05-10T02:08:36;4.55;;;2.25;;
72891;SDS011;61032;50.782;6.818;2023-05-10T02:09:38;5.05;;;2.70;;
72891;SDS011;61032;50.782;6.818;2023-05-10T02:10:40;5.60;;;2.63;;
72891;SDS011;61032;50.782;6.818;2023-05-10T02:11:43;3.90;;;2.33;;
72891;SDS011;61032;50.782;6.818;2023-05-10T02:12:44;4.45;;;2.13;;
72891;SDS011;61032;50.782;6.818;2023-05-10T02:13:47;5.03;;;2.42;;
72891;SDS011;61032;50.782;6.818;2023-05-10T02:14:50;4.07;;;2.47;;
72891;SDS011;61032;50.782;6.818;2023-05-10T02:15:53;5.47;;;2.53;;
72891;SDS011;61032;50.782;6.818;2023-05-10T02:16:54;4.00;;;2.60;;
72891;SDS011;61032;50.782;6.818;2023-05-10T02:17:56;4.00;;;2.60;;
72891;SDS011;61032;50.782;6.818;2023-05-10T02:19:00;3.88;;;2.35;;
72891;SDS011;61032;50.782;6.818;2023-05-10T02:20:02;4.45;;;2.08;;
72891;SDS011;61032;50.782;6.818;2023-05-10T02:21:06;4.90;;;2.83;;
72891;SDS011;61032;50.782;6.818;2023-05-10T02:22:09;4.97;;;2.55;;
72891;SDS011;61032;50.782;6.818;2023-05-10T02:23:10;5.35;;;2.90;;
72891;SDS011;61032;50.782;6.818;2023-05-10T02:24:12;4.53;;;2.78;;
72891;SDS011;61032;50.782;6.818;2023-05-10T02:25:15;4.93;;;2.67;;
72891;SDS011;61032;50.782;6.818;2023-05-10T02:26:19;6.97;;;3.28;;
72891;SDS011;61032;50.782;6.818;2023-05-10T02:27:22;4.28;;;2.97;;
72891;SDS011;61032;50.782;6.818;2023-05-10T02:28:25;5.40;;;2.85;;
72891;SDS011;61032;50.782;6.818;2023-05-10T02:30:28;7.32;;;2.97;;
72891;SDS011;61032;50.782;6.818;2023-05-10T02:31:32;6.68;;;3.30;;
72891;SDS011;61032;50.782;6.818;2023-05-10T02:32:33;5.15;;;3.03;;
72891;SDS011;61032;50.782;6.818;2023-05-10T02:33:35;4.93;;;2.83;;
72891;SDS011;61032;50.782;6.818;2023-05-10T02:34:39;4.40;;;2.80;;
72891;SDS011;61032;50.782;6.818;2023-05-10T02:35:40;5.75;;;3.00;;
72891;SDS011;61032;50.782;6.818;2023-05-10T02:36:41;4.45;;;2.78;;
72891;SDS011;61032;50.782;6.818;2023-05-10T02:37:43;5.30;;;3.05;;
72891;SDS011;61032;50.782;6.818;2023-05-10T02:39:49;5.78;;;2.97;;
72891;SDS011;61032;50.782;6.818;2023-05-10T02:40:50;4.70;;;2.85;;
72891;SDS011;61032;50.782;6.818;2023-05-10T02:41:51;3.60;;;2.33;;
72891;SDS011;61032;50.782;6.818;2023-05-10T02:42:54;6.18;;;2.72;;
72891;SDS011;61032;50.782;6.818;2023-05-10T02:43:57;8.73;;;2.38;;
72891;SDS011;61032;50.782;6.818;2023-05-10T02:45:02;4.85;;;2.67;;
72891;SDS011;61032;50.782;6.818;2023-05-10T02:46:07;5.20;;;2.30;;
72891;SDS011;61032;50.782;6.818;2023-05-10T02:47:07;6.82;;;3.42;;
72891;SDS011;61032;50.782;6.818;2023-05-10T02:48:08;4.22;;;2.40;;
72891;SDS011;61032;50.782;6.818;2023-05-10T02:49:09;4.63;;;2.30;;
72891;SDS011;61032;50.782;6.818;2023-05-10T02:50:10;4.45;;;2.60;;
72891;SDS011;61032;50.782;6.818;2023-05-10T02:51:10;4.47;;;2.22;;
72891;SDS011;61032;50.782;6.818;2023-05-10T02:52:15;4.82;;;2.33;;
72891;SDS011;61032;50.782;6.818;2023-05-10T02:53:21;6.57;;;2.35;;
72891;SDS011;61032;50.782;6.818;2023-05-10T02:54:30;4.47;;;2.20;;
72891;SDS011;61032;50.782;6.818;2023-05-10T02:55:35;4.18;;;2.22;;
72891;SDS011;61032;50.782;6.818;2023-05-10T02:56:40;4.88;;;2.30;;
72891;SDS011;61032;50.782;6.818;2023-05-10T02:57:45;4.53;;;2.38;;
72891;SDS011;61032;50.782;6.818;2023-05-10T02:58:51;3.80;;;2.40;;
72891;SDS011;61032;50.782;6.818;2023-05-10T02:59:52;3.85;;;2.15;;
72891;SDS011;61032;50.782;6.818;2023-05-10T03:00:53;6.07;;;3.38;;
72891;SDS011;61032;50.782;6.818;2023-05-10T03:01:54;4.15;;;2.42;;
72891;SDS011;61032;50.782;6.818;2023-05-10T03:02:54;5.30;;;2.83;;
72891;SDS011;61032;50.782;6.818;2023-05-10T03:03:55;5.60;;;2.60;;
72891;SDS011;61032;50.782;6.818;2023-05-10T03:04:56;5.20;;;2.60;;
72891;SDS011;61032;50.782;6.818;2023-05-10T03:05:56;5.07;;;2.50;;
72891;SDS011;61032;50.782;6.818;2023-05-10T03:06:57;5.78;;;2.70;;
72891;SDS011;61032;50.782;6.818;2023-05-10T03:07:58;4.38;;;2.70;;
72891;SDS011;61032;50.782;6.818;2023-05-10T03:09:01;5.05;;;2.72;;
72891;SDS011;61032;50.782;6.818;2023-05-10T03:12:19;5.75;;;2.53;;
72891;SDS011;61032;50.782;6.818;2023-05-10T03:13:35;6.72;;;2.95;;
72891;SDS011;61032;50.782;6.818;2023-05-10T03:16:06;4.22;;;2.47;;
72891;SDS011;61032;50.782;6.818;2023-05-10T03:17:10;4.63;;;2.65;;
72891;SDS011;61032;50.782;6.818;2023-05-10T03:18:18;5.30;;;2.78;;
72891;SDS011;61032;50.782;6.818;2023-05-10T03:19:32;6.38;;;2.83;;
72891;SDS011;61032;50.782;6.818;2023-05-10T03:20:49;6.90;;;3.28;;
72891;SDS011;61032;50.782;6.818;2023-05-10T03:21:55;5.72;;;3.35;;
72891;SDS011;61032;50.782;6.818;2023-05-10T03:23:07;8.02;;;4.30;;
72891;SDS011;61032;50.782;6.818;2023-05-10T03:24:13;6.95;;;4.20;;
72891;SDS011;61032;50.782;6.818;2023-05-10T03:26:24;6.22;;;3.35;;
72891;SDS011;61032;50.782;6.818;2023-05-10T03:27:26;9.18;;;4.20;;
72891;SDS011;61032;50.782;6.818;2023-05-10T03:28:28;7.47;;;4.25;;
72891;SDS011;61032;50.782;6.818;2023-05-10T03:30:31;9.75;;;4.47;;
72891;SDS011;61032;50.782;6.818;2023-05-10T03:31:32;10.63;;;5.05;;
72891;SDS011;61032;50.782;6.818;2023-05-10T03:32:32;7.97;;;4.50;;
72891;SDS011;61032;50.782;6.818;2023-05-10T03:33:34;10.07;;;5.38;;
72891;SDS011;61032;50.782;6.818;2023-05-10T03:34:36;10.38;;;5.20;;
72891;SDS011;61032;50.782;6.818;2023-05-10T03:35:41;11.13;;;6.05;;
72891;SDS011;61032;50.782;6.818;2023-05-10T03:36:41;11.15;;;5.28;;
72891;SDS011;61032;50.782;6.818;2023-05-10T03:37:42;9.73;;;5.38;;
72891;SDS011;61032;50.782;6.818;2023-05-10T03:38:42;9.75;;;5.88;;
72891;SDS011;61032;50.782;6.818;2023-05-10T03:39:43;9.20;;;5.22;;
72891;SDS011;61032;50.782;6.818;2023-05-10T03:40:43;10.50;;;5.32;;
72891;SDS011;61032;50.782;6.818;2023-05-10T03:41:44;10.48;;;5.50;;
72891;SDS011;61032;50.782;6.818;2023-05-10T03:42:44;10.88;;;5.60;;
72891;SDS011;61032;50.782;6.818;2023-05-10T03:43:44;10.05;;;5.97;;
72891;SDS011;61032;50.782;6.818;2023-05-10T03:44:45;11.63;;;6.38;;
72891;SDS011;61032;50.782;6.818;2023-05-10T03:45:45;16.40;;;7.35;;
72891;SDS011;61032;50.782;6.818;2023-05-10T03:46:46;12.38;;;6.65;;
72891;SDS011;61032;50.782;6.818;2023-05-10T03:47:47;15.23;;;7.13;;
72891;SDS011;61032;50.782;6.818;2023-05-10T03:48:47;11.88;;;6.68;;
72891;SDS011;61032;50.782;6.818;2023-05-10T03:49:48;13.85;;;7.63;;
72891;SDS011;61032;50.782;6.818;2023-05-10T03:50:51;14.52;;;7.00;;
72891;SDS011;61032;50.782;6.818;2023-05-10T03:51:51;11.88;;;7.68;;
72891;SDS011;61032;50.782;6.818;2023-05-10T03:52:52;12.68;;;7.80;;
72891;SDS011;61032;50.782;6.818;2023-05-10T03:53:52;13.23;;;6.85;;
72891;SDS011;61032;50.782;6.818;2023-05-10T03:54:52;14.25;;;7.72;;
72891;SDS011;61032;50.782;6.818;2023-05-10T03:55:53;12.82;;;8.02;;
72891;SDS011;61032;50.782;6.818;2023-05-10T03:56:53;15.25;;;8.40;;
72891;SDS011;61032;50.782;6.818;2023-05-10T03:57:53;14.20;;;7.93;;
72891;SDS011;61032;50.782;6.818;2023-05-10T03:58:54;14.57;;;7.95;;
72891;SDS011;61032;50.782;6.818;2023-05-10T03:59:54;14.07;;;8.00;;
72891;SDS011;61032;50.782;6.818;2023-05-10T04:00:55;13.95;;;7.70;;
72891;SDS011;61032;50.782;6.818;2023-05-10T04:01:55;13.40;;;7.97;;
72891;SDS011;61032;50.782;6.818;2023-05-10T04:02:56;13.65;;;8.68;;
72891;SDS011;61032;50.782;6.818;2023-05-10T04:03:57;13.30;;;7.93;;
72891;SDS011;61032;50.782;6.818;2023-05-10T04:04:57;15.77;;;8.27;;
72891;SDS011;61032;50.782;6.818;2023-05-10T04:05:58;12.50;;;6.88;;
72891;SDS011;61032;50.782;6.818;2023-05-10T04:07:02;13.00;;;7.63;;
72891;SDS011;61032;50.782;6.818;2023-05-10T04:08:03;12.82;;;7.70;;
72891;SDS011;61032;50.782;6.818;2023-05-10T04:09:04;13.73;;;7.85;;
72891;SDS011;61032;50.782;6.818;2023-05-10T04:10:04;13.90;;;7.57;;
72891;SDS011;61032;50.782;6.818;2023-05-10T04:11:08;15.20;;;8.25;;
72891;SDS011;61032;50.782;6.818;2023-05-10T04:12:10;17.50;;;8.10;;
72891;SDS011;61032;50.782;6.818;2023-05-10T04:13:10;15.48;;;8.75;;
72891;SDS011;61032;50.782;6.818;2023-05-10T04:14:11;16.08;;;7.88;;
72891;SDS011;61032;50.782;6.818;2023-05-10T04:15:11;14.05;;;7.63;;
72891;SDS011;61032;50.782;6.818;2023-05-10T04:16:11;13.82;;;7.80;;
72891;SDS011;61032;50.782;6.818;2023-05-10T04:17:12;16.38;;;8.32;;
72891;SDS011;61032;50.782;6.818;2023-05-10T04:18:12;16.00;;;7.85;;
72891;SDS011;61032;50.782;6.818;2023-05-10T04:19:13;13.82;;;7.38;;
72891;SDS011;61032;50.782;6.818;2023-05-10T04:20:13;15.18;;;7.97;;
72891;SDS011;61032;50.782;6.818;2023-05-10T04:21:14;13.57;;;7.53;;
72891;SDS011;61032;50.782;6.818;2023-05-10T04:22:15;13.68;;;7.43;;
72891;SDS011;61032;50.782;6.818;2023-05-10T04:23:15;16.42;;;8.10;;
72891;SDS011;61032;50.782;6.818;2023-05-10T04:24:16;17.88;;;8.00;;
72891;SDS011;61032;50.782;6.818;2023-05-10T04:25:17;14.15;;;7.82;;
72891;SDS011;61032;50.782;6.818;2023-05-10T04:26:17;15.60;;;7.85;;
72891;SDS011;61032;50.782;6.818;2023-05-10T04:27:17;13.73;;;7.85;;
72891;SDS011;61032;50.782;6.818;2023-05-10T04:28:18;13.32;;;7.45;;
72891;SDS011;61032;50.782;6.818;2023-05-10T04:29:18;15.32;;;7.78;;
72891;SDS011;61032;50.782;6.818;2023-05-10T04:30:19;13.98;;;7.50;;
72891;SDS011;61032;50.782;6.818;2023-05-10T04:31:19;13.43;;;7.25;;
72891;SDS011;61032;50.782;6.818;2023-05-10T04:32:20;12.23;;;7.10;;
72891;SDS011;61032;50.782;6.818;2023-05-10T04:33:20;12.20;;;6.78;;
72891;SDS011;61032;50.782;6.818;2023-05-10T04:34:20;11.50;;;6.68;;
72891;SDS011;61032;50.782;6.818;2023-05-10T04:35:21;11.52;;;6.32;;
72891;SDS011;61032;50.782;6.818;2023-05-10T04:36:22;12.63;;;7.20;;
72891;SDS011;61032;50.782;6.818;2023-05-10T04:37:22;11.82;;;7.55;;
72891;SDS011;61032;50.782;6.818;2023-05-10T04:38:23;13.48;;;7.63;;
72891;SDS011;61032;50.782;6.818;2023-05-10T04:39:23;11.85;;;6.70;;
72891;SDS011;61032;50.782;6.818;2023-05-10T04:40:24;12.30;;;6.75;;
72891;SDS011;61032;50.782;6.818;2023-05-10T04:41:24;10.70;;;6.40;;
72891;SDS011;61032;50.782;6.818;2023-05-10T04:42:25;11.52;;;7.20;;
72891;SDS011;61032;50.782;6.818;2023-05-10T04:43:26;12.13;;;6.78;;
72891;SDS011;61032;50.782;6.818;2023-05-10T04:44:26;10.13;;;6.20;;
72891;SDS011;61032;50.782;6.818;2023-05-10T04:45:26;10.05;;;6.55;;
72891;SDS011;61032;50.782;6.818;2023-05-10T04:46:27;11.02;;;6.75;;
72891;SDS011;61032;50.782;6.818;2023-05-10T04:47:27;10.88;;;6.40;;
72891;SDS011;61032;50.782;6.818;2023-05-10T04:48:28;10.48;;;6.38;;
72891;SDS011;61032;50.782;6.818;2023-05-10T04:49:29;11.60;;;7.03;;
72891;SDS011;61032;50.782;6.818;2023-05-10T04:50:30;13.02;;;6.68;;
72891;SDS011;61032;50.782;6.818;2023-05-10T04:51:34;8.45;;;5.63;;
72891;SDS011;61032;50.782;6.818;2023-05-10T04:52:34;11.43;;;5.85;;
72891;SDS011;61032;50.782;6.818;2023-05-10T04:53:34;11.65;;;5.45;;
72891;SDS011;61032;50.782;6.818;2023-05-10T04:54:35;11.60;;;6.32;;
72891;SDS011;61032;50.782;6.818;2023-05-10T04:55:35;10.20;;;6.28;;
72891;SDS011;61032;50.782;6.818;2023-05-10T04:56:36;10.55;;;5.80;;
72891;SDS011;61032;50.782;6.818;2023-05-10T04:57:36;10.93;;;6.63;;
72891;SDS011;61032;50.782;6.818;2023-05-10T04:58:37;12.23;;;6.38;;
72891;SDS011;61032;50.782;6.818;2023-05-10T04:59:37;12.20;;;6.55;;
72891;SDS011;61032;50.782;6.818;2023-05-10T05:00:38;11.02;;;6.72;;
72891;SDS011;61032;50.782;6.818;2023-05-10T05:01:39;13.93;;;6.95;;
72891;SDS011;61032;50.782;6.818;2023-05-10T05:02:43;12.65;;;7.07;;
72891;SDS011;61032;50.782;6.818;2023-05-10T05:03:45;12.68;;;7.03;;
72891;SDS011;61032;50.782;6.818;2023-05-10T05:04:45;17.13;;;7.45;;
72891;SDS011;61032;50.782;6.818;2023-05-10T05:05:46;12.82;;;7.13;;
72891;SDS011;61032;50.782;6.818;2023-05-10T05:06:46;11.43;;;6.90;;
72891;SDS011;61032;50.782;6.818;2023-05-10T05:07:47;13.18;;;7.20;;
72891;SDS011;61032;50.782;6.818;2023-05-10T05:08:47;12.95;;;7.38;;
72891;SDS011;61032;50.782;6.818;2023-05-10T05:09:49;12.32;;;7.18;;
72891;SDS011;61032;50.782;6.818;2023-05-10T05:10:49;15.73;;;8.55;;
72891;SDS011;61032;50.782;6.818;2023-05-10T05:11:50;14.57;;;7.57;;
72891;SDS011;61032;50.782;6.818;2023-05-10T05:12:50;13.85;;;7.68;;
72891;SDS011;61032;50.782;6.818;2023-05-10T05:13:51;15.30;;;8.05;;
72891;SDS011;61032;50.782;6.818;2023-05-10T05:14:51;13.55;;;7.65;;
72891;SDS011;61032;50.782;6.818;2023-05-10T05:15:52;17.20;;;7.78;;
72891;SDS011;61032;50.782;6.818;2023-05-10T05:16:53;15.10;;;7.53;;
72891;SDS011;61032;50.782;6.818;2023-05-10T05:17:53;15.48;;;8.35;;
72891;SDS011;61032;50.782;6.818;2023-05-10T05:18:54;13.10;;;7.95;;
72891;SDS011;61032;50.782;6.818;2023-05-10T05:19:55;15.05;;;7.40;;
72891;SDS011;61032;50.782;6.818;2023-05-10T05:20:56;13.45;;;7.45;;
72891;SDS011;61032;50.782;6.818;2023-05-10T05:21:59;15.93;;;7.85;;
72891;SDS011;61032;50.782;6.818;2023-05-10T05:23:00;14.55;;;7.72;;
72891;SDS011;61032;50.782;6.818;2023-05-10T05:24:01;15.48;;;8.23;;
72891;SDS011;61032;50.782;6.818;2023-05-10T05:25:01;13.55;;;7.80;;
72891;SDS011;61032;50.782;6.818;2023-05-10T05:26:03;14.02;;;8.05;;
72891;SDS011;61032;50.782;6.818;2023-05-10T05:27:04;14.05;;;7.25;;
72891;SDS011;61032;50.782;6.818;2023-05-10T05:28:04;15.18;;;8.40;;
72891;SDS011;61032;50.782;6.818;2023-05-10T05:29:05;13.07;;;7.55;;
72891;SDS011;61032;50.782;6.818;2023-05-10T05:30:05;14.55;;;8.05;;
72891;SDS011;61032;50.782;6.818;2023-05-10T05:31:06;13.30;;;7.57;;
72891;SDS011;61032;50.782;6.818;2023-05-10T05:32:10;13.73;;;7.82;;
72891;SDS011;61032;50.782;6.818;2023-05-10T05:33:14;14.15;;;7.95;;
72891;SDS011;61032;50.782;6.818;2023-05-10T05:34:15;13.02;;;7.88;;
72891;SDS011;61032;50.782;6.818;2023-05-10T05:35:15;13.35;;;7.53;;
72891;SDS011;61032;50.782;6.818;2023-05-10T05:36:16;12.10;;;6.55;;
72891;SDS011;61032;50.782;6.818;2023-05-10T05:37:17;12.80;;;7.25;;
72891;SDS011;61032;50.782;6.818;2023-05-10T05:38:18;11.50;;;7.28;;
72891;SDS011;61032;50.782;6.818;2023-05-10T05:39:19;13.05;;;7.28;;
72891;SDS011;61032;50.782;6.818;2023-05-10T05:40:19;13.45;;;8.02;;
72891;SDS011;61032;50.782;6.818;2023-05-10T05:41:20;13.48;;;7.25;;
72891;SDS011;61032;50.782;6.818;2023-05-10T05:42:21;16.23;;;7.70;;
72891;SDS011;61032;50.782;6.818;2023-05-10T05:43:22;11.43;;;6.53;;
72891;SDS011;61032;50.782;6.818;2023-05-10T05:44:23;11.02;;;6.88;;
72891;SDS011;61032;50.782;6.818;2023-05-10T05:45:24;11.10;;;6.75;;
72891;SDS011;61032;50.782;6.818;2023-05-10T05:46:24;12.50;;;7.00;;
72891;SDS011;61032;50.782;6.818;2023-05-10T05:47:25;11.13;;;6.72;;
72891;SDS011;61032;50.782;6.818;2023-05-10T05:48:25;11.00;;;6.40;;
72891;SDS011;61032;50.782;6.818;2023-05-10T05:49:26;10.25;;;6.07;;
72891;SDS011;61032;50.782;6.818;2023-05-10T05:50:26;12.43;;;6.70;;
72891;SDS011;61032;50.782;6.818;2023-05-10T05:51:27;11.98;;;6.82;;
72891;SDS011;61032;50.782;6.818;2023-05-10T05:52:27;11.32;;;5.80;;
72891;SDS011;61032;50.782;6.818;2023-05-10T05:53:28;12.80;;;6.65;;
72891;SDS011;61032;50.782;6.818;2023-05-10T05:54:28;10.10;;;6.47;;
72891;SDS011;61032;50.782;6.818;2023-05-10T05:55:30;9.35;;;5.50;;
72891;SDS011;61032;50.782;6.818;2023-05-10T05:56:31;10.48;;;6.00;;
72891;SDS011;61032;50.782;6.818;2023-05-10T05:57:31;12.15;;;5.38;;
72891;SDS011;61032;50.782;6.818;2023-05-10T05:58:32;10.88;;;5.43;;
72891;SDS011;61032;50.782;6.818;2023-05-10T05:59:33;8.73;;;5.38;;
72891;SDS011;61032;50.782;6.818;2023-05-10T06:00:33;10.88;;;5.63;;
72891;SDS011;61032;50.782;6.818;2023-05-10T06:01:34;9.90;;;5.68;;
72891;SDS011;61032;50.782;6.818;2023-05-10T06:02:34;8.25;;;4.88;;
72891;SDS011;61032;50.782;6.818;2023-05-10T06:03:34;9.77;;;5.05;;
72891;SDS011;61032;50.782;6.818;2023-05-10T06:04:35;9.65;;;4.50;;
72891;SDS011;61032;50.782;6.818;2023-05-10T06:05:35;10.02;;;5.72;;
72891;SDS011;61032;50.782;6.818;2023-05-10T06:06:36;8.20;;;4.55;;
72891;SDS011;61032;50.782;6.818;2023-05-10T06:07:36;8.52;;;4.95;;
72891;SDS011;61032;50.782;6.818;2023-05-10T06:08:37;10.43;;;5.22;;
72891;SDS011;61032;50.782;6.818;2023-05-10T06:09:37;8.85;;;5.63;;
72891;SDS011;61032;50.782;6.818;2023-05-10T06:10:37;10.70;;;5.45;;
72891;SDS011;61032;50.782;6.818;2023-05-10T06:11:38;9.82;;;4.90;;
72891;SDS011;61032;50.782;6.818;2023-05-10T06:12:38;7.47;;;4.03;;
72891;SDS011;61032;50.782;6.818;2023-05-10T06:13:39;7.55;;;4.30;;
72891;SDS011;61032;50.782;6.818;2023-05-10T06:14:39;7.95;;;4.70;;
72891;SDS011;61032;50.782;6.818;2023-05-10T06:15:40;6.90;;;4.30;;
72891;SDS011;61032;50.782;6.818;2023-05-10T06:16:40;6.45;;;3.97;;
72891;SDS011;61032;50.782;6.818;2023-05-10T06:17:41;7.45;;;4.18;;
72891;SDS011;61032;50.782;6.818;2023-05-10T06:18:42;10.23;;;3.90;;
72891;SDS011;61032;50.782;6.818;2023-05-10T06:19:43;5.97;;;3.00;;
72891;SDS011;61032;50.782;6.818;2023-05-10T06:20:43;6.78;;;3.08;;
72891;SDS011;61032;50.782;6.818;2023-05-10T06:21:44;5.68;;;2.83;;
72891;SDS011;61032;50.782;6.818;2023-05-10T06:22:44;8.15;;;3.53;;
72891;SDS011;61032;50.782;6.818;2023-05-10T06:23:45;6.60;;;3.10;;
72891;SDS011;61032;50.782;6.818;2023-05-10T06:24:45;6.60;;;2.85;;
72891;SDS011;61032;50.782;6.818;2023-05-10T06:25:46;3.95;;;2.55;;
72891;SDS011;61032;50.782;6.818;2023-05-10T06:26:46;6.13;;;3.08;;
72891;SDS011;61032;50.782;6.818;2023-05-10T06:27:47;5.78;;;3.42;;
72891;SDS011;61032;50.782;6.818;2023-05-10T06:28:47;8.20;;;2.55;;
72891;SDS011;61032;50.782;6.818;2023-05-10T06:29:48;5.78;;;2.83;;
72891;SDS011;61032;50.782;6.818;2023-05-10T06:30:48;5.60;;;3.10;;
72891;SDS011;61032;50.782;6.818;2023-05-10T06:31:49;5.22;;;2.75;;
72891;SDS011;61032;50.782;6.818;2023-05-10T06:32:49;5.05;;;2.78;;
72891;SDS011;61032;50.782;6.818;2023-05-10T06:33:50;4.45;;;2.75;;
72891;SDS011;61032;50.782;6.818;2023-05-10T06:34:50;6.45;;;2.65;;